Time;durP1;ratioP1;P1;durP2;ratioP2;P2;SDS_P1;SDS_P2;PMS_P1;PMS_P2;Temp;Humidity;BMP_temperature;BMP_pressure;BME280_temperature;BME280_humidity;BME280_pressure;Samples;Min_cycle;Max_cycle;Signal;HPM_P1;HPM_P2
2021/10/25 00:00:22;;;;;;;;;;;;;;;18.09;61.50;100293.22;2084467;28;20058;-64
2021/10/25 00:01:23;;;;;;;;;;;;;;;18.08;61.25;100291.47;2078267;28;20258;-64
2021/10/25 00:02:23;;;;;;;;;;;;;;;18.07;61.28;100290.63;2080542;28;19905;-64
2021/10/25 00:03:23;;;;;;;;;;;;;;;18.09;61.26;100293.22;2082649;28;20683;-64
2021/10/25 00:04:24;;;;;;;;;;;;;;;18.08;61.47;100296.94;2079533;28;20623;-64
2021/10/25 00:05:25;;;;;;;;;;;;;;;18.08;61.47;100291.47;2081199;28;20428;-64
2021/10/25 00:06:25;;;;;;;;;;;;;;;18.08;61.34;100291.47;2078893;28;19917;-64
2021/10/25 00:07:26;;;;;;;;;;;;;;;18.07;61.43;100289.75;2083483;28;19920;-64
2021/10/25 00:08:26;;;;;;;;;;;;;;;18.08;61.19;100291.47;2080591;28;19979;-64
2021/10/25 00:09:29;;;;;;;;;;;;;;;18.08;61.37;100291.47;2081979;28;20318;-64
2021/10/25 00:10:29;;;;;;;;;;;;;;;18.07;61.29;100290.63;2083020;28;19975;-65
2021/10/25 00:11:30;;;;;;;;;;;;;;;18.08;61.35;100288.75;2075637;28;19912;-64
2021/10/25 00:12:31;;;;;;;;;;;;;;;18.07;61.25;100295.22;2076265;28;19956;-64
2021/10/25 00:13:31;;;;;;;;;;;;;;;18.07;61.34;100290.63;2083001;28;20268;-64
2021/10/25 00:14:31;;;;;;;;;;;;;;;18.08;61.45;100299.66;2083175;28;19948;-64
2021/10/25 00:15:32;;;;;;;;;;;;;;;18.07;61.39;100295.22;2082468;28;20626;-64
2021/10/25 00:16:32;;;;;;;;;;;;;;;18.07;61.45;100289.75;2080145;28;20079;-64
2021/10/25 00:17:32;;;;;;;;;;;;;;;18.07;61.36;100295.22;2085402;28;20784;-64
2021/10/25 00:18:33;;;;;;;;;;;;;;;18.06;61.42;100293.50;2083643;28;20023;-64
2021/10/25 00:19:34;;;;;;;;;;;;;;;18.06;61.23;100296.22;2080032;28;19996;-64
2021/10/25 00:20:34;;;;;;;;;;;;;;;18.06;61.32;100293.50;2085000;28;20345;-64
2021/10/25 00:21:34;;;;;;;;;;;;;;;18.06;61.25;100293.50;2081439;28;20020;-64
2021/10/25 00:22:35;;;;;;;;;;;;;;;18.06;61.30;100288.06;2086769;28;20041;-64
2021/10/25 00:23:35;;;;;;;;;;;;;;;18.06;61.32;100285.31;2084868;28;19923;-64
2021/10/25 00:24:36;;;;;;;;;;;;;;;18.06;61.24;100286.19;2077942;28;19962;-64
2021/10/25 00:25:36;;;;;;;;;;;;;;;18.05;61.29;100284.44;2080688;28;20477;-64
2021/10/25 00:26:37;;;;;;;;;;;;;;;18.05;61.20;100287.16;2090189;28;19922;-64
2021/10/25 00:27:37;;;;;;;;;;;;;;;18.06;61.29;100288.06;2085382;28;20440;-64
2021/10/25 00:28:37;;;;;;;;;;;;;;;18.05;61.11;100292.63;2079875;28;20413;-64
2021/10/25 00:29:38;;;;;;;;;;;;;;;18.05;61.27;100286.31;2085405;28;20575;-64
2021/10/25 00:30:38;;;;;;;;;;;;;;;18.05;61.28;100291.75;2084159;28;19986;-64
2021/10/25 00:31:38;;;;;;;;;;;;;;;18.06;61.33;100288.06;2081730;28;20018;-64
2021/10/25 00:32:39;;;;;;;;;;;;;;;18.05;61.32;100286.31;2086901;28;19922;-64
2021/10/25 00:33:39;;;;;;;;;;;;;;;18.06;61.15;100282.59;2085806;28;19920;-64
2021/10/25 00:34:39;;;;;;;;;;;;;;;18.05;61.31;100289.88;2084778;28;20354;-64
2021/10/25 00:35:40;;;;;;;;;;;;;;;18.05;61.03;100289.03;2082422;28;19916;-64
2021/10/25 00:36:40;;;;;;;;;;;;;;;18.05;61.22;100289.03;2078617;28;19920;-64
2021/10/25 00:37:41;;;;;;;;;;;;;;;18.05;61.20;100286.31;2081450;28;19916;-64
2021/10/25 00:38:42;;;;;;;;;;;;;;;18.04;61.15;100279.13;2082664;28;20240;-64
2021/10/25 00:39:42;;;;;;;;;;;;;;;18.04;61.19;100284.59;2081756;28;20002;-64
2021/10/25 00:40:42;;;;;;;;;;;;;;;18.04;61.02;100287.31;2085882;28;20509;-65
2021/10/25 00:41:43;;;;;;;;;;;;;;;18.04;61.16;100284.59;2082487;28;20159;-65
2021/10/25 00:42:43;;;;;;;;;;;;;;;18.03;61.23;100283.72;2083991;28;19923;-64
2021/10/25 00:43:44;;;;;;;;;;;;;;;18.03;61.11;100278.28;2082130;28;19982;-64
2021/10/25 00:44:44;;;;;;;;;;;;;;;18.03;61.23;100282.84;2084998;28;20062;-65
2021/10/25 00:45:44;;;;;;;;;;;;;;;18.02;61.27;100281.13;2083670;28;19956;-64
2021/10/25 00:46:44;;;;;;;;;;;;;;;18.04;61.20;100281.88;2083840;28;19912;-64
2021/10/25 00:47:45;;;;;;;;;;;;;;;18.04;61.21;100284.59;2079228;28;20030;-64
2021/10/25 00:48:45;;;;;;;;;;;;;;;18.03;61.08;100277.38;2081732;28;20283;-64
2021/10/25 00:49:46;;;;;;;;;;;;;;;18.04;61.21;100284.59;2070803;28;20062;-65
2021/10/25 00:50:46;;;;;;;;;;;;;;;18.03;61.12;100283.72;2070555;28;19983;-65
2021/10/25 00:51:47;;;;;;;;;;;;;;;18.03;61.20;100286.47;2083554;28;19955;-64
2021/10/25 00:52:47;;;;;;;;;;;;;;;18.02;61.08;100284.72;2078424;28;19963;-64
2021/10/25 00:53:47;;;;;;;;;;;;;;;18.03;60.92;100291.03;2085087;28;19912;-64
2021/10/25 00:54:48;;;;;;;;;;;;;;;18.03;61.22;100280.13;2084023;28;19916;-64
2021/10/25 00:55:49;;;;;;;;;;;;;;;18.03;61.13;100282.84;2085621;28;19938;-64
2021/10/25 00:56:49;;;;;;;;;;;;;;;18.03;60.95;100283.72;2083788;28;19908;-64
2021/10/25 00:57:50;;;;;;;;;;;;;;;18.03;61.12;100282.84;2085429;28;19917;-64
2021/10/25 00:58:50;;;;;;;;;;;;;;;18.03;61.11;100288.31;2084342;28;19909;-64
2021/10/25 00:59:51;;;;;;;;;;;;;;;18.03;60.96;100288.31;2082648;28;19942;-64
2021/10/25 01:00:51;;;;;;;;;;;;;;;18.02;61.16;100287.44;2071471;28;19916;-64
2021/10/25 01:01:52;;;;;;;;;;;;;;;18.02;61.14;100286.59;2075102;28;20787;-64
2021/10/25 01:02:52;;;;;;;;;;;;;;;18.03;61.00;100291.03;2084730;28;20389;-65
2021/10/25 01:03:52;;;;;;;;;;;;;;;18.02;60.97;100283.84;2085876;28;19909;-64
2021/10/25 01:04:53;;;;;;;;;;;;;;;18.03;60.95;100291.03;2080172;28;20418;-64
2021/10/25 01:05:54;;;;;;;;;;;;;;;18.02;61.00;100286.59;2086307;28;19913;-64
2021/10/25 01:06:54;;;;;;;;;;;;;;;18.02;61.13;100281.13;2073435;28;19921;-64
2021/10/25 01:07:55;;;;;;;;;;;;;;;18.02;61.08;100286.59;2075299;28;19928;-60
2021/10/25 01:08:56;;;;;;;;;;;;;;;18.00;60.98;100287.56;2083136;28;19928;-61
2021/10/25 01:09:56;;;;;;;;;;;;;;;18.02;61.17;100292.03;2084612;28;19916;-61
2021/10/25 01:10:58;;;;;;;;;;;;;;;18.00;61.13;100284.84;2083782;28;19920;-61
2021/10/25 01:11:58;;;;;;;;;;;;;;;18.00;60.84;100284.84;2084467;28;20010;-61
2021/10/25 01:12:58;;;;;;;;;;;;;;;18.01;61.01;100285.72;2084484;28;19963;-61
2021/10/25 01:14:01;;;;;;;;;;;;;;;18.01;61.11;100285.72;2083088;28;20789;-61
2021/10/25 01:15:02;;;;;;;;;;;;;;;18.02;60.90;100283.84;2084881;28;20788;-61
2021/10/25 01:16:04;;;;;;;;;;;;;;;18.00;61.00;100290.31;2085649;28;19956;-61
2021/10/25 01:17:04;;;;;;;;;;;;;;;18.00;60.88;100284.84;2084151;28;20065;-61
2021/10/25 01:18:05;;;;;;;;;;;;;;;18.00;61.02;100284.84;2084614;28;20182;-61
2021/10/25 01:19:05;;;;;;;;;;;;;;;18.00;60.79;100284.84;2078257;28;19916;-61
2021/10/25 01:20:05;;;;;;;;;;;;;;;18.00;60.78;100284.00;2081023;28;20360;-62
2021/10/25 01:21:06;;;;;;;;;;;;;;;18.00;60.76;100287.56;2078703;28;20570;-61
2021/10/25 01:22:07;;;;;;;;;;;;;;;18.00;60.88;100295.75;2080460;28;19917;-61
2021/10/25 01:23:16;;;;;;;;;;;;;;;18.00;60.89;100282.13;2080120;28;20646;-61
2021/10/25 01:24:17;;;;;;;;;;;;;;;18.00;60.83;100284.84;2077813;28;19917;-61
2021/10/25 01:25:17;;;;;;;;;;;;;;;17.99;60.92;100288.59;2086471;28;20251;-61
2021/10/25 01:26:18;;;;;;;;;;;;;;;18.00;60.89;100290.31;2083116;28;20417;-61
2021/10/25 01:27:19;;;;;;;;;;;;;;;18.02;60.84;100289.31;2085203;28;20782;-61
2021/10/25 01:28:19;;;;;;;;;;;;;;;18.00;61.03;100289.44;2084795;28;20369;-61
2021/10/25 01:29:20;;;;;;;;;;;;;;;17.99;60.81;100285.84;2083885;28;19916;-61
2021/10/25 01:30:20;;;;;;;;;;;;;;;17.99;61.02;100283.13;2085414;28;20141;-61
2021/10/25 01:31:22;;;;;;;;;;;;;;;18.00;60.81;100284.00;2084052;28;19917;-61
2021/10/25 01:32:23;;;;;;;;;;;;;;;18.00;60.77;100287.56;2084197;28;19912;-61
2021/10/25 01:33:23;;;;;;;;;;;;;;;18.00;60.85;100284.00;2085625;28;19916;-59
2021/10/25 01:34:24;;;;;;;;;;;;;;;18.00;60.85;100289.44;2083372;28;19913;-60
2021/10/25 01:35:24;;;;;;;;;;;;;;;18.01;60.81;100291.19;2085094;28;19916;-60
2021/10/25 01:36:24;;;;;;;;;;;;;;;18.00;60.79;100284.84;2083751;28;19916;-60
2021/10/25 01:37:26;;;;;;;;;;;;;;;18.00;60.77;100286.72;2075447;28;20689;-60
2021/10/25 01:38:26;;;;;;;;;;;;;;;18.00;60.74;100276.66;2075772;28;19994;-60
2021/10/25 01:39:26;;;;;;;;;;;;;;;17.99;60.72;100283.13;2084516;28;19913;-61
2021/10/25 01:40:27;;;;;;;;;;;;;;;17.99;60.81;100280.41;2083387;28;20049;-60
2021/10/25 01:41:27;;;;;;;;;;;;;;;17.99;60.78;100279.53;2083317;28;20411;-60
2021/10/25 01:42:27;;;;;;;;;;;;;;;17.99;60.83;100280.41;2083834;28;19923;-60
2021/10/25 01:43:28;;;;;;;;;;;;;;;17.99;60.71;100283.13;2085132;28;20477;-60
2021/10/25 01:44:28;;;;;;;;;;;;;;;17.99;60.82;100280.41;2082188;28;19998;-60
2021/10/25 01:45:29;;;;;;;;;;;;;;;17.99;60.88;100280.41;2078566;28;20343;-61
2021/10/25 01:46:29;;;;;;;;;;;;;;;17.99;60.81;100279.53;2080898;28;19949;-60
2021/10/25 01:47:29;;;;;;;;;;;;;;;17.98;60.63;100278.69;2078641;28;20398;-61
2021/10/25 01:48:29;;;;;;;;;;;;;;;17.98;60.59;100281.41;2079803;28;19913;-60
2021/10/25 01:49:30;;;;;;;;;;;;;;;17.98;60.82;100270.50;2081350;28;19963;-60
2021/10/25 01:50:30;;;;;;;;;;;;;;;17.98;60.57;100275.97;2078492;28;19939;-60
2021/10/25 01:51:31;;;;;;;;;;;;;;;17.97;60.63;100278.81;2071460;28;20420;-60
2021/10/25 01:52:31;;;;;;;;;;;;;;;17.99;60.59;100282.28;2084538;28;20000;-60
2021/10/25 01:53:34;;;;;;;;;;;;;;;17.97;60.79;100273.38;2076568;28;19939;-60
2021/10/25 01:54:34;;;;;;;;;;;;;;;17.98;60.56;100275.97;2078622;28;20360;-60
2021/10/25 01:55:34;;;;;;;;;;;;;;;17.97;60.61;100268.75;2077612;28;19923;-60
2021/10/25 01:56:37;;;;;;;;;;;;;;;17.96;60.71;100272.50;2082354;28;19921;-61
2021/10/25 01:57:37;;;;;;;;;;;;;;;17.97;60.77;100276.94;2082832;28;19943;-60
2021/10/25 01:58:38;;;;;;;;;;;;;;;17.97;60.66;100270.63;2077128;28;19917;-60
2021/10/25 01:59:39;;;;;;;;;;;;;;;17.96;60.56;100277.97;2076759;28;20395;-61
2021/10/25 02:00:39;;;;;;;;;;;;;;;17.97;60.83;100278.81;2083045;28;19916;-60
2021/10/25 02:01:40;;;;;;;;;;;;;;;17.96;60.73;100274.38;2083245;28;20023;-60
2021/10/25 02:02:40;;;;;;;;;;;;;;;17.96;60.68;100274.38;2081425;28;20759;-60
2021/10/25 02:03:41;;;;;;;;;;;;;;;17.96;60.61;100277.97;2082933;28;19924;-60
2021/10/25 02:04:41;;;;;;;;;;;;;;;17.96;60.72;100274.38;2082702;28;19916;-60
2021/10/25 02:05:42;;;;;;;;;;;;;;;17.96;60.59;100277.09;2083872;28;19913;-60
2021/10/25 02:06:42;;;;;;;;;;;;;;;17.95;60.79;100275.34;2082262;28;19923;-60
2021/10/25 02:07:42;;;;;;;;;;;;;;;17.95;60.64;100276.22;2081144;28;19971;-60
2021/10/25 02:08:43;;;;;;;;;;;;;;;17.96;60.81;100277.09;2081089;28;19923;-60
2021/10/25 02:09:43;;;;;;;;;;;;;;;17.95;60.50;100278.94;2082680;28;19997;-60
2021/10/25 02:10:43;;;;;;;;;;;;;;;17.96;60.55;100277.09;2079203;28;19994;-60
2021/10/25 02:11:44;;;;;;;;;;;;;;;17.96;60.43;100277.09;2083667;28;19970;-60
2021/10/25 02:12:44;;;;;;;;;;;;;;;17.95;60.70;100270.75;2083147;28;19916;-60
2021/10/25 02:13:45;;;;;;;;;;;;;;;17.95;60.69;100273.50;2086876;28;20395;-60
2021/10/25 02:14:46;;;;;;;;;;;;;;;17.95;60.54;100267.19;2081777;28;19916;-60
2021/10/25 02:15:47;;;;;;;;;;;;;;;17.94;60.56;100269.06;2074949;28;20025;-60
2021/10/25 02:16:47;;;;;;;;;;;;;;;17.94;60.48;100269.06;2070372;28;19998;-60
2021/10/25 02:17:48;;;;;;;;;;;;;;;17.94;60.57;100269.06;2080552;28;19961;-60
2021/10/25 02:18:48;;;;;;;;;;;;;;;17.94;60.66;100263.59;2084671;28;19924;-61
2021/10/25 02:19:50;;;;;;;;;;;;;;;17.93;60.63;100267.34;2083138;28;19916;-60
2021/10/25 02:20:51;;;;;;;;;;;;;;;17.95;60.59;100270.75;2082264;28;19931;-60
2021/10/25 02:21:51;;;;;;;;;;;;;;;17.95;60.52;100254.41;2083932;28;19916;-60
2021/10/25 02:22:51;;;;;;;;;;;;;;;17.94;60.37;100257.28;2084650;28;19920;-60
2021/10/25 02:23:52;;;;;;;;;;;;;;;17.94;60.51;100258.13;2083423;28;20001;-60
2021/10/25 02:24:52;;;;;;;;;;;;;;;17.95;60.64;100253.53;2084005;28;20133;-60
2021/10/25 02:25:53;;;;;;;;;;;;;;;17.93;60.63;100256.44;2082115;28;19923;-59
2021/10/25 02:26:53;;;;;;;;;;;;;;;17.93;60.57;100256.44;2080426;28;19961;-60
2021/10/25 02:27:53;;;;;;;;;;;;;;;17.93;60.59;100256.44;2082360;28;19921;-60
2021/10/25 02:28:54;;;;;;;;;;;;;;;17.93;60.62;100250.97;2084331;28;19908;-60
2021/10/25 02:29:54;;;;;;;;;;;;;;;17.93;60.55;100250.97;2084756;28;20426;-60
2021/10/25 02:30:55;;;;;;;;;;;;;;;17.93;60.58;100253.69;2079432;28;19908;-61
2021/10/25 02:31:55;;;;;;;;;;;;;;;17.94;60.45;100257.28;2081388;28;19951;-60
2021/10/25 02:32:56;;;;;;;;;;;;;;;17.94;60.44;100255.41;2078449;28;19917;-60
2021/10/25 02:33:56;;;;;;;;;;;;;;;17.94;60.48;100258.13;2082282;28;19921;-60
2021/10/25 02:34:57;;;;;;;;;;;;;;;17.94;60.31;100257.28;2083108;28;20664;-60
2021/10/25 02:35:57;;;;;;;;;;;;;;;17.93;60.58;100261.88;2081398;28;19939;-60
2021/10/25 02:36:58;;;;;;;;;;;;;;;17.94;60.51;100258.13;2076915;28;19970;-60
2021/10/25 02:37:58;;;;;;;;;;;;;;;17.93;60.52;100267.34;2085074;28;20378;-66
2021/10/25 02:38:58;;;;;;;;;;;;;;;17.93;60.41;100267.34;2080343;28;19928;-66
2021/10/25 02:39:59;;;;;;;;;;;;;;;17.93;60.57;100261.88;2085481;28;19916;-66
2021/10/25 02:40:59;;;;;;;;;;;;;;;17.93;60.47;100267.34;2082273;28;20394;-66
2021/10/25 02:42:00;;;;;;;;;;;;;;;17.92;60.56;100262.88;2082337;28;20379;-66
2021/10/25 02:43:00;;;;;;;;;;;;;;;17.93;60.35;100258.25;2083878;28;19966;-66
2021/10/25 02:44:00;;;;;;;;;;;;;;;17.93;60.42;100261.88;2080487;28;19944;-66
2021/10/25 02:45:01;;;;;;;;;;;;;;;17.93;60.37;100261.00;2081482;28;19908;-66
2021/10/25 02:46:01;;;;;;;;;;;;;;;17.92;60.50;100260.13;2081626;28;19943;-66
2021/10/25 02:47:02;;;;;;;;;;;;;;;17.92;60.29;100257.41;2076826;28;19939;-66
2021/10/25 02:48:02;;;;;;;;;;;;;;;17.91;60.30;100258.44;2077273;28;19927;-66
2021/10/25 02:49:03;;;;;;;;;;;;;;;17.93;60.46;100261.00;2076472;28;19917;-66
2021/10/25 02:50:03;;;;;;;;;;;;;;;17.92;60.37;100260.13;2080218;28;19928;-66
2021/10/25 02:51:05;;;;;;;;;;;;;;;17.92;60.47;100254.69;2076535;28;19974;-66
2021/10/25 02:52:05;;;;;;;;;;;;;;;17.92;60.47;100253.81;2077580;28;19921;-66
2021/10/25 02:53:08;;;;;;;;;;;;;;;17.91;60.41;100258.44;2081545;28;19915;-66
2021/10/25 02:54:09;;;;;;;;;;;;;;;17.92;60.33;100249.22;2083048;28;19916;-66
2021/10/25 02:55:09;;;;;;;;;;;;;;;17.92;60.34;100248.38;2084240;28;20425;-66
2021/10/25 02:56:10;;;;;;;;;;;;;;;17.92;60.24;100253.81;2083442;28;20002;-66
2021/10/25 02:57:10;;;;;;;;;;;;;;;17.92;60.39;100257.41;2083815;28;19982;-66
2021/10/25 02:58:10;;;;;;;;;;;;;;;17.92;60.24;100257.41;2083423;28;19955;-66
2021/10/25 02:59:11;;;;;;;;;;;;;;;17.91;60.29;100258.44;2083523;28;19913;-66
2021/10/25 03:00:13;;;;;;;;;;;;;;;17.91;60.43;100263.88;2083246;28;19916;-66
2021/10/25 03:01:13;;;;;;;;;;;;;;;17.92;60.33;100254.69;2081430;28;19916;-64
2021/10/25 03:02:14;;;;;;;;;;;;;;;17.91;60.36;100258.44;2082215;28;20879;-64
2021/10/25 03:03:14;;;;;;;;;;;;;;;17.91;60.29;100255.69;2083479;28;19916;-64
2021/10/25 03:04:15;;;;;;;;;;;;;;;17.91;60.22;100263.88;2082536;28;19956;-65
2021/10/25 03:05:15;;;;;;;;;;;;;;;17.91;60.22;100252.13;2084083;28;19916;-64
2021/10/25 03:06:16;;;;;;;;;;;;;;;17.91;60.36;100260.28;2080639;28;20390;-64
2021/10/25 03:07:16;;;;;;;;;;;;;;;17.91;60.27;100263.88;2078302;28;19916;-64
2021/10/25 03:08:17;;;;;;;;;;;;;;;17.91;60.15;100263.88;2078944;28;19916;-64
2021/10/25 03:09:17;;;;;;;;;;;;;;;17.91;60.19;100263.88;2081581;28;19916;-64
2021/10/25 03:10:18;;;;;;;;;;;;;;;17.91;60.22;100258.44;2083807;28;20438;-65
2021/10/25 03:11:18;;;;;;;;;;;;;;;17.90;60.05;100256.69;2082030;28;20439;-64
2021/10/25 03:12:19;;;;;;;;;;;;;;;17.90;60.34;100262.13;2078126;28;20235;-64
2021/10/25 03:13:19;;;;;;;;;;;;;;;17.91;60.21;100252.97;2094249;28;19920;-64
2021/10/25 03:14:19;;;;;;;;;;;;;;;17.90;60.42;100256.69;2083761;28;19913;-64
2021/10/25 03:15:20;;;;;;;;;;;;;;;17.90;60.14;100256.69;2084221;28;19912;-64
2021/10/25 03:16:24;;;;;;;;;;;;;;;17.90;60.16;100256.69;2083237;28;20289;-64
2021/10/25 03:17:25;;;;;;;;;;;;;;;17.91;60.23;100263.03;2078657;28;19908;-64
2021/10/25 03:18:25;;;;;;;;;;;;;;;17.91;60.31;100258.44;2078878;28;19963;-64
2021/10/25 03:19:27;;;;;;;;;;;;;;;17.90;60.24;100255.81;2084335;28;20493;-64
2021/10/25 03:20:27;;;;;;;;;;;;;;;17.90;60.13;100251.22;2080441;28;19919;-65
2021/10/25 03:21:27;;;;;;;;;;;;;;;17.89;60.29;100254.13;2085716;28;19919;-64
2021/10/25 03:22:28;;;;;;;;;;;;;;;17.89;59.93;100249.50;2080384;28;19927;-64
2021/10/25 03:23:29;;;;;;;;;;;;;;;17.89;60.28;100252.25;2086342;28;20426;-64
2021/10/25 03:24:29;;;;;;;;;;;;;;;17.89;60.27;100251.38;2075505;28;19917;-64
2021/10/25 03:25:30;;;;;;;;;;;;;;;17.89;60.17;100254.97;2077032;28;19951;-64
2021/10/25 03:26:30;;;;;;;;;;;;;;;17.89;59.98;100252.25;2085922;28;19923;-64
2021/10/25 03:27:31;;;;;;;;;;;;;;;17.89;60.10;100254.97;2081466;28;19917;-65
2021/10/25 03:28:31;;;;;;;;;;;;;;;17.89;60.07;100248.66;2081140;28;20592;-64
2021/10/25 03:29:32;;;;;;;;;;;;;;;17.90;60.25;100256.69;2084691;28;19917;-64
2021/10/25 03:30:32;;;;;;;;;;;;;;;17.89;60.06;100254.97;2081870;28;19924;-64
2021/10/25 03:31:33;;;;;;;;;;;;;;;17.89;59.94;100260.41;2075357;28;19966;-64
2021/10/25 03:32:33;;;;;;;;;;;;;;;17.88;60.24;100253.22;2072604;28;19913;-64
2021/10/25 03:33:35;;;;;;;;;;;;;;;17.88;60.08;100257.81;2081982;28;19909;-64
2021/10/25 03:34:35;;;;;;;;;;;;;;;17.88;60.17;100253.22;2081372;28;19959;-64
2021/10/25 03:35:36;;;;;;;;;;;;;;;17.88;59.96;100253.22;2083357;28;19916;-64
2021/10/25 03:36:38;;;;;;;;;;;;;;;17.88;59.99;100253.22;2081314;28;20400;-64
2021/10/25 03:37:39;;;;;;;;;;;;;;;17.89;60.08;100259.56;2082035;28;19917;-64
2021/10/25 03:38:40;;;;;;;;;;;;;;;17.88;59.99;100257.81;2072053;28;19909;-64
2021/10/25 03:39:42;;;;;;;;;;;;;;;17.88;59.79;100258.69;2075071;28;20743;-64
2021/10/25 03:40:46;;;;;;;;;;;;;;;17.88;59.76;100252.38;2078762;28;19916;-64
2021/10/25 03:41:48;;;;;;;;;;;;;;;17.87;59.80;100254.25;2079249;28;19916;-64
2021/10/25 03:42:52;;;;;;;;;;;;;;;17.88;59.87;100255.94;2084114;28;19942;-64
2021/10/25 03:43:58;;;;;;;;;;;;;;;17.88;59.98;100253.22;2079483;28;19960;-65
2021/10/25 03:45:16;;;;;;;;;;;;;;;17.88;60.07;100253.22;2082077;28;19916;-65
2021/10/25 03:46:34;;;;;;;;;;;;;;;17.88;59.84;100247.78;2080057;28;19959;-65
2021/10/25 03:47:44;;;;;;;;;;;;;;;17.87;59.87;100246.06;2074701;28;19921;-65
2021/10/25 03:48:59;;;;;;;;;;;;;;;17.87;59.93;100247.94;2075152;28;19920;-65
2021/10/25 03:50:15;;;;;;;;;;;;;;;17.88;59.92;100246.91;2081309;28;19970;-65
2021/10/25 03:51:16;;;;;;;;;;;;;;;17.87;59.91;100251.50;2082996;28;20258;-65
2021/10/25 03:54:36;;;;;;;;;;;;;;;17.87;59.95;100250.66;2085507;28;19965;-65
2021/10/25 03:55:48;;;;;;;;;;;;;;;17.87;59.95;100250.66;2077356;28;19985;-64
2021/10/25 03:59:27;;;;;;;;;;;;;;;17.87;59.66;100256.09;2081756;28;19962;-65
2021/10/25 04:27:57;;;;;;;;;;;;;;;17.84;59.71;100251.78;2083296;28;19974;-66
2021/10/25 04:28:57;;;;;;;;;;;;;;;17.85;59.76;100252.66;2082913;28;19924;-66
2021/10/25 04:30:05;;;;;;;;;;;;;;;17.84;59.79;100251.78;2085563;28;19920;-67
2021/10/25 04:31:07;;;;;;;;;;;;;;;17.84;59.63;100251.78;2085114;28;20329;-67
2021/10/25 04:32:08;;;;;;;;;;;;;;;17.85;59.81;100249.91;2085446;28;19917;-66
2021/10/25 04:33:08;;;;;;;;;;;;;;;17.85;59.72;100249.91;2084626;28;19916;-62
2021/10/25 04:34:08;;;;;;;;;;;;;;;17.84;59.59;100249.06;2082383;28;19916;-61
2021/10/25 04:35:09;;;;;;;;;;;;;;;17.84;59.58;100251.78;2082710;28;19918;-61
2021/10/25 04:36:10;;;;;;;;;;;;;;;17.83;59.69;100252.78;2083369;28;20430;-60
2021/10/25 04:37:10;;;;;;;;;;;;;;;17.84;59.66;100250.94;2074184;28;20658;-60
2021/10/25 04:38:11;;;;;;;;;;;;;;;17.84;59.51;100245.47;2075913;28;19952;-60
2021/10/25 04:39:13;;;;;;;;;;;;;;;17.83;59.57;100251.91;2083940;28;20927;-61
2021/10/25 04:40:14;;;;;;;;;;;;;;;17.83;59.58;100244.59;2081681;28;19920;-61
2021/10/25 04:41:14;;;;;;;;;;;;;;;17.83;59.80;100254.66;2083707;28;20589;-61
2021/10/25 04:42:16;;;;;;;;;;;;;;;17.82;59.58;100251.06;2081567;28;19920;-60
2021/10/25 04:43:17;;;;;;;;;;;;;;;17.83;59.63;100260.09;2082628;28;19917;-60
2021/10/25 04:44:18;;;;;;;;;;;;;;;17.83;59.49;100255.50;2084012;28;20394;-60
2021/10/25 04:45:19;;;;;;;;;;;;;;;17.83;59.75;100258.22;2080401;28;20390;-60
2021/10/25 04:46:19;;;;;;;;;;;;;;;17.82;59.64;100251.06;2083293;28;20680;-60
2021/10/25 04:47:20;;;;;;;;;;;;;;;17.82;59.69;100253.78;2083522;28;20333;-60
2021/10/25 04:48:20;;;;;;;;;;;;;;;17.83;59.54;100254.66;2081755;28;19908;-60
2021/10/25 04:49:21;;;;;;;;;;;;;;;17.82;59.56;100256.53;2079309;28;19982;-60
2021/10/25 04:50:21;;;;;;;;;;;;;;;17.82;59.45;100253.78;2084279;28;19917;-60
2021/10/25 04:51:22;;;;;;;;;;;;;;;17.82;59.72;100261.97;2082628;28;19909;-60
2021/10/25 04:52:23;;;;;;;;;;;;;;;17.82;59.53;100258.38;2082769;28;19948;-60
2021/10/25 04:53:23;;;;;;;;;;;;;;;17.81;59.43;100260.25;2083384;28;20420;-60
2021/10/25 04:54:23;;;;;;;;;;;;;;;17.81;59.56;100257.53;2078575;28;19974;-60
2021/10/25 04:55:24;;;;;;;;;;;;;;;17.81;59.48;100260.25;2080556;28;19962;-61
2021/10/25 04:56:24;;;;;;;;;;;;;;;17.81;59.56;100254.81;2079998;28;19931;-61
2021/10/25 04:57:24;;;;;;;;;;;;;;;17.81;59.56;100257.53;2084906;28;19928;-61
2021/10/25 04:58:24;;;;;;;;;;;;;;;17.82;59.53;100252.94;2077985;28;19944;-60
2021/10/25 04:59:25;;;;;;;;;;;;;;;17.82;59.45;100251.06;2079791;28;20162;-61
2021/10/25 05:00:25;;;;;;;;;;;;;;;17.82;59.44;100252.94;2082818;28;20013;-61
2021/10/25 05:01:25;;;;;;;;;;;;;;;17.81;59.39;100246.63;2078754;28;19913;-61
2021/10/25 05:02:26;;;;;;;;;;;;;;;17.81;59.43;100249.34;2083554;28;19916;-61
2021/10/25 05:03:27;;;;;;;;;;;;;;;17.81;59.31;100240.28;2083251;28;19912;-61
2021/10/25 05:04:28;;;;;;;;;;;;;;;17.81;59.65;100252.09;2080000;28;20352;-61
2021/10/25 05:05:28;;;;;;;;;;;;;;;17.80;59.34;100250.34;2084815;28;19909;-60
2021/10/25 05:06:29;;;;;;;;;;;;;;;17.81;59.28;100251.19;2082566;28;19917;-61
2021/10/25 05:07:29;;;;;;;;;;;;;;;17.80;59.38;100247.59;2083883;28;19916;-60
2021/10/25 05:08:30;;;;;;;;;;;;;;;17.80;59.52;100244.88;2083411;28;19921;-61
2021/10/25 05:09:31;;;;;;;;;;;;;;;17.80;59.41;100244.88;2082053;28;19946;-60
2021/10/25 05:10:31;;;;;;;;;;;;;;;17.79;59.50;100248.59;2083756;28;19912;-61
2021/10/25 05:11:32;;;;;;;;;;;;;;;17.81;59.45;100251.19;2084847;28;19977;-61
2021/10/25 05:12:32;;;;;;;;;;;;;;;17.81;59.32;100256.66;2083361;28;19932;-60
2021/10/25 05:13:32;;;;;;;;;;;;;;;17.80;59.43;100250.34;2084952;28;19919;-61
2021/10/25 05:14:32;;;;;;;;;;;;;;;17.81;59.58;100252.09;2079022;28;19913;-60
2021/10/25 05:15:33;;;;;;;;;;;;;;;17.80;59.39;100253.06;2079637;28;19916;-61
2021/10/25 05:16:33;;;;;;;;;;;;;;;17.80;59.54;100250.34;2087203;28;20418;-61
2021/10/25 05:17:34;;;;;;;;;;;;;;;17.80;59.55;100253.06;2082491;28;20009;-61
2021/10/25 05:18:34;;;;;;;;;;;;;;;17.81;59.59;100256.66;2086147;28;20354;-61
2021/10/25 05:19:34;;;;;;;;;;;;;;;17.80;59.24;100255.78;2081647;28;19923;-61
2021/10/25 05:20:34;;;;;;;;;;;;;;;17.79;59.56;100252.16;2074047;28;19921;-61
2021/10/25 05:21:35;;;;;;;;;;;;;;;17.79;59.26;100248.59;2076657;28;20411;-61
2021/10/25 05:22:35;;;;;;;;;;;;;;;17.80;59.39;100255.78;2078002;28;19916;-61
2021/10/25 05:23:36;;;;;;;;;;;;;;;17.79;59.25;100254.91;2079657;28;20695;-61
2021/10/25 05:24:36;;;;;;;;;;;;;;;17.79;59.39;100257.63;2087363;28;20668;-61
2021/10/25 05:25:36;;;;;;;;;;;;;;;17.79;59.35;100254.03;2086725;28;20444;-61
2021/10/25 05:26:37;;;;;;;;;;;;;;;17.79;59.28;100254.03;2085552;28;19916;-61
2021/10/25 05:27:37;;;;;;;;;;;;;;;17.79;59.38;100259.50;2082446;28;19923;-61
2021/10/25 05:28:39;;;;;;;;;;;;;;;17.80;59.22;100253.06;2086460;28;19920;-61
2021/10/25 05:29:41;;;;;;;;;;;;;;;17.78;59.50;100250.47;2077615;28;19916;-61
2021/10/25 05:30:41;;;;;;;;;;;;;;;17.79;59.39;100254.03;2071352;28;20260;-61
2021/10/25 05:31:42;;;;;;;;;;;;;;;17.78;59.17;100252.28;2075203;28;19971;-62
2021/10/25 05:32:42;;;;;;;;;;;;;;;17.79;59.45;100254.03;2075631;28;19920;-59
2021/10/25 05:33:42;;;;;;;;;;;;;;;17.78;59.34;100253.19;2073659;28;19920;-60
2021/10/25 05:34:43;;;;;;;;;;;;;;;17.80;59.33;100261.25;2084832;28;19909;-60
2021/10/25 05:35:43;;;;;;;;;;;;;;;17.79;59.56;100254.91;2084899;28;20351;-61
2021/10/25 05:36:44;;;;;;;;;;;;;;;17.81;59.47;100256.66;2082663;28;20395;-60
2021/10/25 05:37:44;;;;;;;;;;;;;;;17.79;59.60;100260.34;2086951;28;19923;-60
2021/10/25 05:38:44;;;;;;;;;;;;;;;17.80;59.69;100255.78;2080704;28;20622;-61
2021/10/25 05:39:45;;;;;;;;;;;;;;;17.81;59.50;100251.19;2081042;28;19917;-60
2021/10/25 05:40:46;;;;;;;;;;;;;;;17.81;59.58;100252.09;2081070;28;19924;-60
2021/10/25 05:41:46;;;;;;;;;;;;;;;17.81;59.83;100251.19;2081463;28;20384;-60
2021/10/25 05:42:47;;;;;;;;;;;;;;;17.81;59.58;100252.09;2083334;28;19917;-60
2021/10/25 05:43:47;;;;;;;;;;;;;;;17.81;59.64;100252.09;2082149;28;19912;-60
2021/10/25 05:44:47;;;;;;;;;;;;;;;17.81;59.63;100251.19;2084853;28;19999;-60